sensor_id;sensor_type;location;lat;lon;timestamp;pressure;altitude;pressure_sealevel;temperature;humidity
62708;BME280;48769;51.624;5.886;2023-03-14T00:01:30;98805.00;;;12.17;100.00
62708;BME280;48769;51.624;5.886;2023-03-14T00:03:55;98796.50;;;12.13;100.00
62708;BME280;48769;51.624;5.886;2023-03-14T00:06:21;98789.09;;;12.17;100.00
62708;BME280;48769;51.624;5.886;2023-03-14T00:08:47;98793.41;;;12.08;100.00
62708;BME280;48769;51.624;5.886;2023-03-14T00:11:21;98790.50;;;12.11;100.00
62708;BME280;48769;51.624;5.886;2023-03-14T00:13:51;98798.16;;;12.24;100.00
62708;BME280;48769;51.624;5.886;2023-03-14T00:16:18;98789.53;;;12.22;100.00
62708;BME280;48769;51.624;5.886;2023-03-14T00:18:43;98790.66;;;12.20;100.00
62708;BME280;48769;51.624;5.886;2023-03-14T00:21:10;98792.47;;;12.19;100.00
62708;BME280;48769;51.624;5.886;2023-03-14T00:23:37;98796.91;;;12.28;100.00
62708;BME280;48769;51.624;5.886;2023-03-14T00:26:22;98782.97;;;12.26;100.00
62708;BME280;48769;51.624;5.886;2023-03-14T00:28:51;98775.72;;;12.19;100.00
62708;BME280;48769;51.624;5.886;2023-03-14T00:31:17;98795.94;;;12.10;100.00
62708;BME280;48769;51.624;5.886;2023-03-14T00:33:43;98783.81;;;12.17;100.00
62708;BME280;48769;51.624;5.886;2023-03-14T00:36:13;98794.69;;;12.14;100.00
62708;BME280;48769;51.624;5.886;2023-03-14T00:38:40;98787.16;;;12.09;100.00
62708;BME280;48769;51.624;5.886;2023-03-14T00:41:11;98784.38;;;12.11;100.00
62708;BME280;48769;51.624;5.886;2023-03-14T00:43:37;98793.56;;;12.07;100.00
62708;BME280;48769;51.624;5.886;2023-03-14T00:46:03;98793.56;;;12.07;100.00
62708;BME280;48769;51.624;5.886;2023-03-14T00:48:28;98806.81;;;12.07;100.00
62708;BME280;48769;51.624;5.886;2023-03-14T00:50:54;98800.53;;;12.08;100.00
62708;BME280;48769;51.624;5.886;2023-03-14T00:53:19;98807.50;;;11.99;100.00
62708;BME280;48769;51.624;5.886;2023-03-14T00:55:45;98803.59;;;11.93;100.00
62708;BME280;48769;51.624;5.886;2023-03-14T00:58:12;98817.38;;;11.97;100.00
62708;BME280;48769;51.624;5.886;2023-03-14T01:00:38;98821.13;;;11.95;100.00
62708;BME280;48769;51.624;5.886;2023-03-14T01:03:05;98826.16;;;11.98;100.00
62708;BME280;48769;51.624;5.886;2023-03-14T01:05:30;98833.25;;;11.97;100.00
62708;BME280;48769;51.624;5.886;2023-03-14T01:07:56;98828.22;;;11.94;100.00
62708;BME280;48769;51.624;5.886;2023-03-14T01:10:21;98833.81;;;12.01;100.00
62708;BME280;48769;51.624;5.886;2023-03-14T01:12:47;98823.78;;;11.95;100.00
62708;BME280;48769;51.624;5.886;2023-03-14T01:15:12;98818.63;;;11.93;100.00
62708;BME280;48769;51.624;5.886;2023-03-14T01:17:37;98819.75;;;11.90;100.00
62708;BME280;48769;51.624;5.886;2023-03-14T01:20:05;98821.13;;;11.85;100.00
62708;BME280;48769;51.624;5.886;2023-03-14T01:22:31;98814.16;;;11.93;100.00
62708;BME280;48769;51.624;5.886;2023-03-14T01:24:56;98801.50;;;11.87;100.00
62708;BME280;48769;51.624;5.886;2023-03-14T01:27:25;98808.44;;;11.88;100.00
62708;BME280;48769;51.624;5.886;2023-03-14T01:29:50;98808.00;;;11.83;100.00
62708;BME280;48769;51.624;5.886;2023-03-14T01:32:16;98810.91;;;11.80;100.00
62708;BME280;48769;51.624;5.886;2023-03-14T01:34:41;98804.66;;;11.81;100.00
62708;BME280;48769;51.624;5.886;2023-03-14T01:37:06;98803.09;;;11.79;100.00
62708;BME280;48769;51.624;5.886;2023-03-14T01:39:33;98794.59;;;11.75;100.00
62708;BME280;48769;51.624;5.886;2023-03-14T01:42:00;98793.22;;;11.71;100.00
62708;BME280;48769;51.624;5.886;2023-03-14T01:44:26;98788.47;;;11.65;100.00
62708;BME280;48769;51.624;5.886;2023-03-14T01:46:51;98785.41;;;11.69;100.00
62708;BME280;48769;51.624;5.886;2023-03-14T01:49:21;98786.81;;;11.64;100.00
62708;BME280;48769;51.624;5.886;2023-03-14T01:52:00;98777.44;;;11.60;100.00
62708;BME280;48769;51.624;5.886;2023-03-14T01:54:28;98777.31;;;11.52;100.00
62708;BME280;48769;51.624;5.886;2023-03-14T01:57:04;98761.72;;;11.49;100.00
62708;BME280;48769;51.624;5.886;2023-03-14T01:59:31;98763.38;;;11.50;100.00
62708;BME280;48769;51.624;5.886;2023-03-14T02:01:58;98761.97;;;11.45;100.00
62708;BME280;48769;51.624;5.886;2023-03-14T02:04:27;98754.06;;;11.45;100.00
62708;BME280;48769;51.624;5.886;2023-03-14T02:07:03;98756.16;;;11.52;100.00
62708;BME280;48769;51.624;5.886;2023-03-14T02:09:30;98752.13;;;11.48;100.00
62708;BME280;48769;51.624;5.886;2023-03-14T02:11:56;98757.22;;;11.39;100.00
62708;BME280;48769;51.624;5.886;2023-03-14T02:14:34;98753.31;;;11.34;100.00
62708;BME280;48769;51.624;5.886;2023-03-14T02:17:01;98765.31;;;11.38;100.00
62708;BME280;48769;51.624;5.886;2023-03-14T02:19:40;98755.56;;;11.38;100.00
62708;BME280;48769;51.624;5.886;2023-03-14T02:22:10;98762.25;;;11.42;100.00
62708;BME280;48769;51.624;5.886;2023-03-14T02:24:42;98764.78;;;11.44;100.00
62708;BME280;48769;51.624;5.886;2023-03-14T02:27:18;98759.59;;;11.42;100.00
62708;BME280;48769;51.624;5.886;2023-03-14T02:29:58;98761.84;;;11.47;100.00
62708;BME280;48769;51.624;5.886;2023-03-14T02:32:26;98750.69;;;11.43;100.00
62708;BME280;48769;51.624;5.886;2023-03-14T02:34:55;98757.53;;;11.46;100.00
62708;BME280;48769;51.624;5.886;2023-03-14T02:37:24;98762.78;;;11.36;100.00
62708;BME280;48769;51.624;5.886;2023-03-14T02:39:52;98761.13;;;11.35;100.00
62708;BME280;48769;51.624;5.886;2023-03-14T02:42:18;98763.78;;;11.35;100.00
62708;BME280;48769;51.624;5.886;2023-03-14T02:47:36;98770.34;;;11.41;100.00
62708;BME280;48769;51.624;5.886;2023-03-14T02:50:09;98757.91;;;11.32;100.00
62708;BME280;48769;51.624;5.886;2023-03-14T02:52:35;98754.97;;;11.25;100.00
62708;BME280;48769;51.624;5.886;2023-03-14T02:55:00;98761.34;;;11.13;100.00
62708;BME280;48769;51.624;5.886;2023-03-14T02:57:26;98758.81;;;11.11;100.00
62708;BME280;48769;51.624;5.886;2023-03-14T02:59:51;98763.81;;;11.14;100.00
62708;BME280;48769;51.624;5.886;2023-03-14T03:02:17;98759.94;;;11.09;100.00
62708;BME280;48769;51.624;5.886;2023-03-14T03:04:42;98749.63;;;11.06;100.00
62708;BME280;48769;51.624;5.886;2023-03-14T03:07:07;98759.06;;;10.98;100.00
62708;BME280;48769;51.624;5.886;2023-03-14T03:09:33;98764.59;;;10.95;100.00
62708;BME280;48769;51.624;5.886;2023-03-14T03:11:58;98758.34;;;10.96;100.00
62708;BME280;48769;51.624;5.886;2023-03-14T03:14:23;98771.56;;;10.96;100.00
62708;BME280;48769;51.624;5.886;2023-03-14T03:16:49;98765.00;;;10.91;100.00
62708;BME280;48769;51.624;5.886;2023-03-14T03:19:14;98767.06;;;10.87;100.00
62708;BME280;48769;51.624;5.886;2023-03-14T03:21:41;98761.50;;;10.90;100.00
62708;BME280;48769;51.624;5.886;2023-03-14T03:24:06;98756.22;;;10.90;100.00
62708;BME280;48769;51.624;5.886;2023-03-14T03:26:34;98749.41;;;10.88;100.00
62708;BME280;48769;51.624;5.886;2023-03-14T03:28:59;98754.69;;;10.88;100.00
62708;BME280;48769;51.624;5.886;2023-03-14T03:31:25;98752.59;;;10.91;100.00
62708;BME280;48769;51.624;5.886;2023-03-14T03:33:50;98754.56;;;10.89;100.00
62708;BME280;48769;51.624;5.886;2023-03-14T03:36:20;98756.63;;;10.86;100.00
62708;BME280;48769;51.624;5.886;2023-03-14T03:38:46;98748.31;;;10.90;100.00
62708;BME280;48769;51.624;5.886;2023-03-14T03:41:11;98754.56;;;10.89;100.00
62708;BME280;48769;51.624;5.886;2023-03-14T03:43:36;98758.72;;;10.82;100.00
62708;BME280;48769;51.624;5.886;2023-03-14T03:46:03;98756.75;;;10.84;100.00
62708;BME280;48769;51.624;5.886;2023-03-14T03:48:29;98745.94;;;10.87;100.00
62708;BME280;48769;51.624;5.886;2023-03-14T03:50:55;98750.94;;;10.90;100.00
62708;BME280;48769;51.624;5.886;2023-03-14T03:53:24;98751.09;;;10.89;100.00
62708;BME280;48769;51.624;5.886;2023-03-14T03:55:49;98744.25;;;10.86;100.00
62708;BME280;48769;51.624;5.886;2023-03-14T03:58:14;98745.94;;;10.87;100.00
62708;BME280;48769;51.624;5.886;2023-03-14T04:00:40;98738.97;;;10.86;100.00
62708;BME280;48769;51.624;5.886;2023-03-14T04:03:05;98742.00;;;10.82;100.00
62708;BME280;48769;51.624;5.886;2023-03-14T04:05:31;98737.69;;;10.81;100.00
62708;BME280;48769;51.624;5.886;2023-03-14T04:07:56;98744.06;;;10.78;100.00
62708;BME280;48769;51.624;5.886;2023-03-14T04:10:21;98730.28;;;10.74;100.00
62708;BME280;48769;51.624;5.886;2023-03-14T04:12:47;98734.19;;;10.70;100.00
62708;BME280;48769;51.624;5.886;2023-03-14T04:15:12;98730.72;;;10.70;100.00
62708;BME280;48769;51.624;5.886;2023-03-14T04:17:37;98731.97;;;10.75;100.00
62708;BME280;48769;51.624;5.886;2023-03-14T04:20:03;98731.91;;;10.66;100.00
62708;BME280;48769;51.624;5.886;2023-03-14T04:22:29;98733.94;;;10.52;100.00
62708;BME280;48769;51.624;5.886;2023-03-14T04:24:54;98737.81;;;10.48;100.00
62708;BME280;48769;51.624;5.886;2023-03-14T04:27:20;98735.69;;;10.42;100.00
62708;BME280;48769;51.624;5.886;2023-03-14T04:29:45;98734.28;;;10.38;100.00
62708;BME280;48769;51.624;5.886;2023-03-14T04:32:10;98736.72;;;10.30;100.00
62708;BME280;48769;51.624;5.886;2023-03-14T04:34:36;98737.41;;;10.32;100.00
62708;BME280;48769;51.624;5.886;2023-03-14T04:37:01;98726.16;;;10.30;100.00
62708;BME280;48769;51.624;5.886;2023-03-14T04:39:26;98717.78;;;10.25;100.00
62708;BME280;48769;51.624;5.886;2023-03-14T04:41:52;98716.38;;;10.21;100.00
62708;BME280;48769;51.624;5.886;2023-03-14T04:44:17;98709.31;;;10.10;100.00
62708;BME280;48769;51.624;5.886;2023-03-14T04:46:43;98700.47;;;10.11;100.00
62708;BME280;48769;51.624;5.886;2023-03-14T04:49:08;98706.00;;;10.08;100.00
62708;BME280;48769;51.624;5.886;2023-03-14T04:51:33;98713.34;;;10.04;100.00
62708;BME280;48769;51.624;5.886;2023-03-14T04:53:59;98707.50;;;10.11;100.00
62708;BME280;48769;51.624;5.886;2023-03-14T04:56:24;98710.50;;;10.17;100.00
62708;BME280;48769;51.624;5.886;2023-03-14T04:58:49;98715.91;;;10.16;100.00
62708;BME280;48769;51.624;5.886;2023-03-14T05:01:15;98719.75;;;10.12;100.00
62708;BME280;48769;51.624;5.886;2023-03-14T05:03:40;98717.13;;;10.12;100.00
62708;BME280;48769;51.624;5.886;2023-03-14T05:06:05;98703.47;;;10.06;100.00
62708;BME280;48769;51.624;5.886;2023-03-14T05:08:31;98702.38;;;10.09;100.00
62708;BME280;48769;51.624;5.886;2023-03-14T05:10:57;98698.16;;;10.18;100.00
62708;BME280;48769;51.624;5.886;2023-03-14T05:13:23;98706.56;;;10.12;100.00
62708;BME280;48769;51.624;5.886;2023-03-14T05:15:49;98706.81;;;10.09;100.00
62708;BME280;48769;51.624;5.886;2023-03-14T05:18:15;98699.34;;;10.14;100.00
62708;BME280;48769;51.624;5.886;2023-03-14T05:20:41;98702.97;;;10.13;100.00
62708;BME280;48769;51.624;5.886;2023-03-14T05:23:08;98702.97;;;10.13;100.00
62708;BME280;48769;51.624;5.886;2023-03-14T05:25:33;98697.94;;;10.10;100.00
62708;BME280;48769;51.624;5.886;2023-03-14T05:27:59;98694.72;;;10.06;100.00
62708;BME280;48769;51.624;5.886;2023-03-14T05:30:24;98694.00;;;10.04;100.00
62708;BME280;48769;51.624;5.886;2023-03-14T05:32:49;98705.94;;;9.98;100.00
62708;BME280;48769;51.624;5.886;2023-03-14T05:35:15;98696.56;;;9.94;100.00
62708;BME280;48769;51.624;5.886;2023-03-14T05:37:40;98696.31;;;9.97;100.00
62708;BME280;48769;51.624;5.886;2023-03-14T05:40:06;98704.84;;;10.01;100.00
62708;BME280;48769;51.624;5.886;2023-03-14T05:42:32;98702.13;;;9.91;100.00
62708;BME280;48769;51.624;5.886;2023-03-14T05:44:58;98714.34;;;9.92;100.00
62708;BME280;48769;51.624;5.886;2023-03-14T05:47:23;98715.81;;;9.85;100.00
62708;BME280;48769;51.624;5.886;2023-03-14T05:49:48;98699.75;;;9.88;100.00
62708;BME280;48769;51.624;5.886;2023-03-14T05:52:14;98707.78;;;9.87;100.00
62708;BME280;48769;51.624;5.886;2023-03-14T05:54:39;98703.91;;;9.91;100.00
62708;BME280;48769;51.624;5.886;2023-03-14T05:57:05;98703.22;;;9.89;100.00
62708;BME280;48769;51.624;5.886;2023-03-14T05:59:30;98703.06;;;9.90;100.00
62708;BME280;48769;51.624;5.886;2023-03-14T06:01:56;98704.06;;;9.89;100.00
62708;BME280;48769;51.624;5.886;2023-03-14T06:04:21;98710.28;;;9.88;100.00
62708;BME280;48769;51.624;5.886;2023-03-14T06:06:46;98691.91;;;9.98;100.00
62708;BME280;48769;51.624;5.886;2023-03-14T06:09:12;98697.81;;;9.90;100.00
62708;BME280;48769;51.624;5.886;2023-03-14T06:11:37;98683.94;;;9.88;100.00
62708;BME280;48769;51.624;5.886;2023-03-14T06:14:02;98680.63;;;9.96;100.00
62708;BME280;48769;51.624;5.886;2023-03-14T06:16:28;98682.88;;;10.00;100.00
62708;BME280;48769;51.624;5.886;2023-03-14T06:18:53;98683.44;;;10.04;100.00
62708;BME280;48769;51.624;5.886;2023-03-14T06:21:18;98688.47;;;10.07;100.00
62708;BME280;48769;51.624;5.886;2023-03-14T06:23:45;98682.50;;;10.05;100.00
62708;BME280;48769;51.624;5.886;2023-03-14T06:26:10;98685.66;;;9.99;100.00
62708;BME280;48769;51.624;5.886;2023-03-14T06:28:37;98680.97;;;10.02;100.00
62708;BME280;48769;51.624;5.886;2023-03-14T06:31:02;98681.53;;;10.06;100.00
62708;BME280;48769;51.624;5.886;2023-03-14T06:33:28;98679.47;;;10.10;100.00
62708;BME280;48769;51.624;5.886;2023-03-14T06:35:54;98679.09;;;10.14;100.00
62708;BME280;48769;51.624;5.886;2023-03-14T06:38:19;98677.16;;;10.16;100.00
62708;BME280;48769;51.624;5.886;2023-03-14T06:40:45;98684.25;;;10.16;100.00
62708;BME280;48769;51.624;5.886;2023-03-14T06:43:10;98693.63;;;10.09;100.00
62708;BME280;48769;51.624;5.886;2023-03-14T06:45:35;98692.91;;;10.06;100.00
62708;BME280;48769;51.624;5.886;2023-03-14T06:48:01;98693.69;;;9.97;100.00
62708;BME280;48769;51.624;5.886;2023-03-14T06:50:26;98695.38;;;9.98;100.00
62708;BME280;48769;51.624;5.886;2023-03-14T06:52:51;98698.13;;;9.97;100.00
62708;BME280;48769;51.624;5.886;2023-03-14T06:55:17;98698.97;;;9.97;100.00
62708;BME280;48769;51.624;5.886;2023-03-14T06:57:42;98700.16;;;10.04;100.00
62708;BME280;48769;51.624;5.886;2023-03-14T07:00:10;98690.75;;;10.12;100.00
62708;BME280;48769;51.624;5.886;2023-03-14T07:02:35;98695.75;;;10.15;100.00
62708;BME280;48769;51.624;5.886;2023-03-14T07:05:01;98705.56;;;10.24;100.00
62708;BME280;48769;51.624;5.886;2023-03-14T07:07:27;98704.22;;;10.29;100.00
62708;BME280;48769;51.624;5.886;2023-03-14T07:09:52;98702.84;;;10.35;100.00
62708;BME280;48769;51.624;5.886;2023-03-14T07:12:17;98712.31;;;10.38;100.00
62708;BME280;48769;51.624;5.886;2023-03-14T07:14:43;98710.13;;;10.43;100.00
62708;BME280;48769;51.624;5.886;2023-03-14T07:17:08;98712.38;;;10.47;100.00
62708;BME280;48769;51.624;5.886;2023-03-14T07:19:33;98706.59;;;10.53;100.00
62708;BME280;48769;51.624;5.886;2023-03-14T07:21:58;98720.22;;;10.59;100.00
62708;BME280;48769;51.624;5.886;2023-03-14T07:24:24;98722.84;;;10.59;100.00
62708;BME280;48769;51.624;5.886;2023-03-14T07:26:49;98724.19;;;10.74;100.00
62708;BME280;48769;51.624;5.886;2023-03-14T07:29:14;98727.00;;;10.82;100.00
62708;BME280;48769;51.624;5.886;2023-03-14T07:31:40;98732.34;;;11.02;100.00
62708;BME280;48769;51.624;5.886;2023-03-14T07:34:05;98737.38;;;11.05;100.00
62708;BME280;48769;51.624;5.886;2023-03-14T07:36:31;98740.41;;;11.00;100.00
62708;BME280;48769;51.624;5.886;2023-03-14T07:38:57;98740.34;;;10.81;100.00
62708;BME280;48769;51.624;5.886;2023-03-14T07:41:22;98742.81;;;10.72;100.00
62708;BME280;48769;51.624;5.886;2023-03-14T07:43:48;98744.84;;;10.69;100.00
62708;BME280;48769;51.624;5.886;2023-03-14T07:46:14;98742.47;;;10.66;100.00
62708;BME280;48769;51.624;5.886;2023-03-14T07:48:40;98739.97;;;10.64;100.00
62708;BME280;48769;51.624;5.886;2023-03-14T07:51:05;98781.66;;;10.61;100.00
62708;BME280;48769;51.624;5.886;2023-03-14T07:53:31;98814.34;;;10.48;100.00
62708;BME280;48769;51.624;5.886;2023-03-14T07:55:56;98832.53;;;9.98;100.00
62708;BME280;48769;51.624;5.886;2023-03-14T07:58:22;98839.44;;;9.67;100.00
62708;BME280;48769;51.624;5.886;2023-03-14T08:00:48;98856.22;;;9.55;100.00
62708;BME280;48769;51.624;5.886;2023-03-14T08:03:13;98860.91;;;9.40;100.00
62708;BME280;48769;51.624;5.886;2023-03-14T08:05:39;98867.13;;;9.39;100.00
62708;BME280;48769;51.624;5.886;2023-03-14T08:08:05;98875.16;;;9.38;100.00
62708;BME280;48769;51.624;5.886;2023-03-14T08:10:31;98873.25;;;9.40;100.00
62708;BME280;48769;51.624;5.886;2023-03-14T08:13:00;98895.03;;;9.30;100.00
62708;BME280;48769;51.624;5.886;2023-03-14T08:15:26;98908.19;;;9.19;100.00
62708;BME280;48769;51.624;5.886;2023-03-14T08:17:52;98913.81;;;9.15;100.00
62708;BME280;48769;51.624;5.886;2023-03-14T08:20:20;98911.41;;;9.00;100.00
62708;BME280;48769;51.624;5.886;2023-03-14T08:22:46;98933.13;;;8.80;100.00
62708;BME280;48769;51.624;5.886;2023-03-14T08:25:11;98930.22;;;8.72;100.00
62708;BME280;48769;51.624;5.886;2023-03-14T08:27:36;98939.81;;;8.73;100.00
62708;BME280;48769;51.624;5.886;2023-03-14T08:30:05;98945.13;;;8.84;100.00
62708;BME280;48769;51.624;5.886;2023-03-14T08:32:30;98951.84;;;8.88;100.00
62708;BME280;48769;51.624;5.886;2023-03-14T08:34:56;98961.31;;;8.91;100.00
62708;BME280;48769;51.624;5.886;2023-03-14T08:37:21;98968.91;;;8.82;100.00
62708;BME280;48769;51.624;5.886;2023-03-14T08:39:47;98983.44;;;8.88;100.00
62708;BME280;48769;51.624;5.886;2023-03-14T08:42:12;98986.75;;;8.90;100.00
62708;BME280;48769;51.624;5.886;2023-03-14T08:44:38;99000.44;;;8.95;100.00
62708;BME280;48769;51.624;5.886;2023-03-14T08:47:03;99006.94;;;9.02;100.00
62708;BME280;48769;51.624;5.886;2023-03-14T08:49:28;99012.56;;;9.09;100.00
62708;BME280;48769;51.624;5.886;2023-03-14T08:51:55;99022.50;;;9.05;100.00
62708;BME280;48769;51.624;5.886;2023-03-14T08:54:20;99039.06;;;9.19;100.00
62708;BME280;48769;51.624;5.886;2023-03-14T08:56:45;99024.47;;;9.26;100.00
62708;BME280;48769;51.624;5.886;2023-03-14T08:59:10;99037.19;;;9.32;100.00
62708;BME280;48769;51.624;5.886;2023-03-14T09:01:36;99049.22;;;9.36;100.00
62708;BME280;48769;51.624;5.886;2023-03-14T09:04:02;99060.84;;;9.45;100.00
62708;BME280;48769;51.624;5.886;2023-03-14T09:06:27;99065.50;;;9.41;100.00
62708;BME280;48769;51.624;5.886;2023-03-14T09:08:52;99072.50;;;9.53;100.00
62708;BME280;48769;51.624;5.886;2023-03-14T09:11:18;99082.75;;;9.45;100.00
62708;BME280;48769;51.624;5.886;2023-03-14T09:13:43;99089.97;;;9.43;100.00
62708;BME280;48769;51.624;5.886;2023-03-14T09:16:09;99097.59;;;9.35;100.00
62708;BME280;48769;51.624;5.886;2023-03-14T09:18:35;99110.28;;;9.30;100.00
62708;BME280;48769;51.624;5.886;2023-03-14T09:21:00;99122.03;;;9.13;100.00
62708;BME280;48769;51.624;5.886;2023-03-14T09:23:26;99143.44;;;9.08;100.00
62708;BME280;48769;51.624;5.886;2023-03-14T09:25:56;99147.13;;;9.06;100.00
62708;BME280;48769;51.624;5.886;2023-03-14T09:28:21;99168.81;;;8.85;100.00
62708;BME280;48769;51.624;5.886;2023-03-14T09:30:47;99185.28;;;8.63;100.00
62708;BME280;48769;51.624;5.886;2023-03-14T09:33:12;99198.56;;;8.49;100.00
62708;BME280;48769;51.624;5.886;2023-03-14T09:35:37;99215.78;;;8.28;100.00
62708;BME280;48769;51.624;5.886;2023-03-14T09:38:03;99217.34;;;8.17;100.00
62708;BME280;48769;51.624;5.886;2023-03-14T09:40:34;99231.53;;;8.02;100.00
62708;BME280;48769;51.624;5.886;2023-03-14T09:43:00;99246.34;;;7.90;100.00
62708;BME280;48769;51.624;5.886;2023-03-14T09:45:27;99254.44;;;7.87;100.00
62708;BME280;48769;51.624;5.886;2023-03-14T09:47:53;99265.38;;;7.94;100.00
62708;BME280;48769;51.624;5.886;2023-03-14T09:50:19;99271.53;;;8.07;100.00
62708;BME280;48769;51.624;5.886;2023-03-14T09:52:48;99291.97;;;8.29;100.00
62708;BME280;48769;51.624;5.886;2023-03-14T09:57:40;99314.47;;;8.20;100.00
62708;BME280;48769;51.624;5.886;2023-03-14T10:02:40;99338.06;;;8.35;100.00
62708;BME280;48769;51.624;5.886;2023-03-14T10:05:19;99335.97;;;9.05;100.00
62708;BME280;48769;51.624;5.886;2023-03-14T10:07:45;99342.53;;;9.62;100.00
62708;BME280;48769;51.624;5.886;2023-03-14T10:10:11;99357.19;;;10.27;100.00
62708;BME280;48769;51.624;5.886;2023-03-14T10:12:38;99364.78;;;10.19;100.00
62708;BME280;48769;51.624;5.886;2023-03-14T10:15:12;99372.91;;;9.92;100.00
62708;BME280;48769;51.624;5.886;2023-03-14T10:17:44;99392.22;;;9.92;100.00
62708;BME280;48769;51.624;5.886;2023-03-14T10:23:18;99412.94;;;9.73;100.00
62708;BME280;48769;51.624;5.886;2023-03-14T10:26:03;99437.56;;;9.97;100.00
62708;BME280;48769;51.624;5.886;2023-03-14T10:28:33;99438.88;;;9.79;100.00
62708;BME280;48769;51.624;5.886;2023-03-14T10:31:00;99449.66;;;9.63;100.00
62708;BME280;48769;51.624;5.886;2023-03-14T10:33:28;99452.59;;;9.58;100.00
62708;BME280;48769;51.624;5.886;2023-03-14T10:35:54;99470.44;;;9.42;100.00
62708;BME280;48769;51.624;5.886;2023-03-14T10:38:23;99491.22;;;9.34;100.00
62708;BME280;48769;51.624;5.886;2023-03-14T10:40:51;99496.56;;;9.32;100.00
62708;BME280;48769;51.624;5.886;2023-03-14T10:43:31;99495.41;;;9.24;100.00
62708;BME280;48769;51.624;5.886;2023-03-14T10:45:58;99515.22;;;9.42;100.00
62708;BME280;48769;51.624;5.886;2023-03-14T10:48:36;99529.81;;;9.86;100.00
62708;BME280;48769;51.624;5.886;2023-03-14T10:56:03;99540.00;;;10.03;100.00
62708;BME280;48769;51.624;5.886;2023-03-14T10:58:40;99542.88;;;10.00;100.00
62708;BME280;48769;51.624;5.886;2023-03-14T11:01:28;99553.59;;;10.23;100.00
62708;BME280;48769;51.624;5.886;2023-03-14T11:04:38;99571.34;;;10.46;100.00
62708;BME280;48769;51.624;5.886;2023-03-14T11:07:19;99580.44;;;11.03;100.00
62708;BME280;48769;51.624;5.886;2023-03-14T11:13:16;99584.25;;;10.99;100.00
62708;BME280;48769;51.624;5.886;2023-03-14T11:15:57;99598.56;;;11.08;100.00
62708;BME280;48769;51.624;5.886;2023-03-14T11:18:35;99604.00;;;11.06;100.00
62708;BME280;48769;51.624;5.886;2023-03-14T11:21:36;99608.16;;;10.61;100.00
62708;BME280;48769;51.624;5.886;2023-03-14T11:27:23;99632.88;;;10.60;100.00
62708;BME280;48769;51.624;5.886;2023-03-14T11:29:41;99648.41;;;10.64;100.00
62708;BME280;48769;51.624;5.886;2023-03-14T11:32:31;99657.31;;;10.50;100.00
62708;BME280;48769;51.624;5.886;2023-03-14T11:35:03;99690.63;;;10.13;100.00
62708;BME280;48769;51.624;5.886;2023-03-14T11:37:33;99728.31;;;9.63;100.00
62708;BME280;48769;51.624;5.886;2023-03-14T11:40:12;99727.25;;;9.38;100.00
62708;BME280;48769;51.624;5.886;2023-03-14T11:42:41;99732.38;;;9.27;100.00
62708;BME280;48769;51.624;5.886;2023-03-14T11:45:16;99732.69;;;9.08;100.00
62708;BME280;48769;51.624;5.886;2023-03-14T11:47:44;99744.53;;;9.15;100.00
62708;BME280;48769;51.624;5.886;2023-03-14T11:50:20;99750.81;;;9.27;100.00
62708;BME280;48769;51.624;5.886;2023-03-14T11:53:09;99755.22;;;9.68;100.00
62708;BME280;48769;51.624;5.886;2023-03-14T11:55:41;99747.41;;;10.06;100.00
62708;BME280;48769;51.624;5.886;2023-03-14T11:58:26;99753.53;;;10.06;100.00
62708;BME280;48769;51.624;5.886;2023-03-14T12:00:54;99773.28;;;10.53;100.00
62708;BME280;48769;51.624;5.886;2023-03-14T12:03:32;99767.88;;;10.68;100.00
62708;BME280;48769;51.624;5.886;2023-03-14T12:06:09;99759.44;;;10.63;100.00
62708;BME280;48769;51.624;5.886;2023-03-14T12:08:43;99780.44;;;10.39;100.00
62708;BME280;48769;51.624;5.886;2023-03-14T12:11:15;99790.66;;;10.03;100.00
62708;BME280;48769;51.624;5.886;2023-03-14T12:13:47;99814.88;;;9.83;100.00
62708;BME280;48769;51.624;5.886;2023-03-14T12:16:31;99819.44;;;9.67;100.00
62708;BME280;48769;51.624;5.886;2023-03-14T12:18:56;99821.09;;;9.41;100.00
62708;BME280;48769;51.624;5.886;2023-03-14T12:21:23;99832.59;;;9.40;100.00
62708;BME280;48769;51.624;5.886;2023-03-14T12:23:51;99827.22;;;9.55;100.00
62708;BME280;48769;51.624;5.886;2023-03-14T12:26:23;99842.03;;;9.71;100.00
62708;BME280;48769;51.624;5.886;2023-03-14T12:29:15;99840.41;;;10.10;100.00
62708;BME280;48769;51.624;5.886;2023-03-14T12:31:59;99839.47;;;10.38;100.00
62708;BME280;48769;51.624;5.886;2023-03-14T12:34:39;99836.22;;;11.23;100.00
62708;BME280;48769;51.624;5.886;2023-03-14T12:42:43;99842.25;;;11.75;100.00
62708;BME280;48769;51.624;5.886;2023-03-14T12:53:28;99834.53;;;13.69;100.00
62708;BME280;48769;51.624;5.886;2023-03-14T13:01:54;99834.38;;;13.82;76.35
62708;BME280;48769;51.624;5.886;2023-03-14T13:04:27;99843.06;;;14.16;75.32
62708;BME280;48769;51.624;5.886;2023-03-14T13:06:58;99842.03;;;15.33;68.88
62708;BME280;48769;51.624;5.886;2023-03-14T13:12:13;99849.59;;;15.69;42.39
62708;BME280;48769;51.624;5.886;2023-03-14T13:14:49;99856.97;;;16.25;42.24
62708;BME280;48769;51.624;5.886;2023-03-14T13:17:24;99864.94;;;16.73;42.27
62708;BME280;48769;51.624;5.886;2023-03-14T13:19:52;99848.56;;;16.88;39.90
62708;BME280;48769;51.624;5.886;2023-03-14T13:22:31;99875.44;;;17.14;41.63
62708;BME280;48769;51.624;5.886;2023-03-14T13:25:03;99872.53;;;17.72;41.01
62708;BME280;48769;51.624;5.886;2023-03-14T13:27:30;99877.78;;;17.64;38.76
62708;BME280;48769;51.624;5.886;2023-03-14T13:29:57;99895.38;;;17.94;38.87
62708;BME280;48769;51.624;5.886;2023-03-14T13:32:27;99898.97;;;18.03;39.12
62708;BME280;48769;51.624;5.886;2023-03-14T13:34:57;99903.81;;;18.17;39.12
62708;BME280;48769;51.624;5.886;2023-03-14T13:37:24;99913.53;;;18.54;37.98
62708;BME280;48769;51.624;5.886;2023-03-14T13:39:54;99918.34;;;18.50;36.81
62708;BME280;48769;51.624;5.886;2023-03-14T13:42:21;99924.28;;;18.26;34.84